Time;durP1;ratioP1;P1;durP2;ratioP2;P2;SDS_P1;SDS_P2;PMS_P1;PMS_P2;Temp;Humidity;BMP_temperature;BMP_pressure;BME280_temperature;BME280_humidity;BME280_pressure;Samples;Min_cycle;Max_cycle;Signal;HPM_P1;HPM_P2
2021/12/16 00:05:01;;;;;;;;;7.75;7.75;;;;;22.26;40.20;103383.88;5107782;27;45532;-74
2021/12/16 00:07:17;;;;;;;;;8.00;6.00;;;;;22.26;40.30;103389.19;5113986;27;45394;-75
2021/12/16 00:31:29;;;;;;;;;9.00;9.00;;;;;22.27;39.79;103401.50;5031956;28;45514;-75
2021/12/16 00:34:02;;;;;;;;;8.25;8.25;;;;;22.27;39.98;103412.09;5031557;28;45294;-75
2021/12/16 00:36:34;;;;;;;;;9.00;9.00;;;;;22.06;40.13;103375.69;5032306;27;45436;-74
2021/12/16 00:39:03;;;;;;;;;8.75;8.75;;;;;22.28;40.08;103412.94;5032074;27;45366;-75
2021/12/16 00:41:28;;;;;;;;;9.25;9.25;;;;;22.28;39.75;103413.78;5034016;28;45464;-75
2021/12/16 00:44:13;;;;;;;;;6.50;6.00;;;;;22.23;39.62;103404.50;5030361;28;45610;-74
2021/12/16 00:49:34;;;;;;;;;10.00;10.00;;;;;22.21;39.71;103399.31;5031407;28;45606;-74
2021/12/16 00:54:51;;;;;;;;;7.25;6.50;;;;;22.18;39.70;103396.88;5031767;28;45386;-74
2021/12/16 00:57:17;;;;;;;;;9.00;8.75;;;;;22.25;40.10;103411.34;5031974;28;45594;-74
2021/12/16 00:59:47;;;;;;;;;10.00;10.00;;;;;22.24;40.10;103412.34;5033169;28;45565;-74
2021/12/16 01:02:44;;;;;;;;;8.75;8.75;;;;;22.20;39.54;103404.75;5037486;27;46570;-74
2021/12/16 01:05:48;;;;;;;;;13.50;9.00;;;;;22.26;40.09;103409.56;5029825;28;45307;-74
2021/12/16 01:49:16;;;;;;;;;13.25;12.25;;;;;22.21;39.87;103414.38;4993353;28;45509;-74
2021/12/16 01:56:49;;;;;;;;;10.50;10.50;;;;;22.12;39.99;103406.16;5003534;27;45386;-74
2021/12/16 01:59:19;;;;;;;;;11.00;10.25;;;;;22.19;40.03;103414.50;4998256;28;45341;-74
2021/12/16 02:01:45;;;;;;;;;10.00;10.00;;;;;22.19;39.90;103419.81;4992884;28;45496;-74
2021/12/16 02:04:19;;;;;;;;;9.00;9.00;;;;;22.18;39.43;103421.59;4993317;28;45612;-74
2021/12/16 02:09:36;;;;;;;;;12.50;10.50;;;;;22.16;39.81;103422.69;4989008;28;45324;-74
2021/12/16 02:12:46;;;;;;;;;8.00;8.00;;;;;22.18;39.84;103420.75;4989855;28;45313;-74
2021/12/16 02:29:46;;;;;;;;;11.00;9.50;;;;;22.18;39.51;103429.56;5030071;28;45722;-74
2021/12/16 02:32:12;;;;;;;;;9.50;8.50;;;;;22.19;39.35;103430.41;5026172;28;45540;-74
2021/12/16 02:34:29;;;;;;;;;13.75;11.50;;;;;22.20;39.38;103429.44;5029056;28;45683;-74
2021/12/16 02:36:56;;;;;;;;;8.75;7.25;;;;;22.16;39.62;103428.84;5030540;27;45456;-74
2021/12/16 02:39:33;;;;;;;;;10.25;10.25;;;;;22.18;39.34;103426.06;5028993;28;46063;-74
2021/12/16 02:42:06;;;;;;;;;10.25;10.25;;;;;22.17;39.60;103425.22;5030354;28;45588;-74
2021/12/16 02:44:39;;;;;;;;;11.00;10.50;;;;;22.11;40.07;103417.75;5037622;27;45446;-74
2021/12/16 02:50:03;;;;;;;;;10.75;10.75;;;;;22.07;39.65;103416.28;4978646;28;45959;-74
2021/12/16 02:52:29;;;;;;;;;9.25;8.50;;;;;22.17;39.91;103438.47;4980273;28;45376;-74
2021/12/16 02:54:56;;;;;;;;;10.75;10.00;;;;;22.17;39.43;103435.81;4980387;28;45963;-74
2021/12/16 02:57:22;;;;;;;;;10.75;10.75;;;;;22.17;39.55;103433.16;4977378;28;45578;-75
2021/12/16 02:59:49;;;;;;;;;11.25;10.00;;;;;22.17;39.91;103427.03;4980138;28;45636;-73
2021/12/16 03:02:17;;;;;;;;;9.25;9.25;;;;;22.05;39.35;103410.25;4980593;28;45347;-74
2021/12/16 03:04:49;;;;;;;;;9.75;8.75;;;;;22.04;39.58;103412.06;4980002;28;45390;-74
2021/12/16 03:07:18;;;;;;;;;12.00;10.50;;;;;21.89;39.94;103387.56;4981288;28;45541;-75
2021/12/16 03:20:54;;;;;;;;;9.25;9.25;;;;;22.12;39.19;103424.72;4992639;28;45355;-74
2021/12/16 03:28:33;;;;;;;;;12.00;11.00;;;;;22.10;39.11;103431.94;5027791;28;45509;-74
2021/12/16 03:38:56;;;;;;;;;11.00;11.00;;;;;22.11;39.79;103433.66;5037382;28;45522;-75
2021/12/16 03:41:22;;;;;;;;;12.50;11.50;;;;;22.07;39.19;103446.28;5037921;27;46207;-74
2021/12/16 03:43:50;;;;;;;;;13.00;11.75;;;;;21.88;39.63;103412.41;5035928;28;46000;-74
2021/12/16 03:46:26;;;;;;;;;12.00;11.75;;;;;22.16;39.37;103450.06;5035924;28;45652;-74
2021/12/16 03:49:14;;;;;;;;;12.00;11.75;;;;;22.18;39.51;103450.78;5034313;28;45430;-74
2021/12/16 03:51:39;;;;;;;;;12.00;11.00;;;;;22.18;39.61;103449.94;5035815;28;47127;-74
2021/12/16 03:54:18;;;;;;;;;13.75;9.50;;;;;22.14;39.60;103441.38;5034821;28;45321;-75
2021/12/16 03:56:44;;;;;;;;;9.00;9.00;;;;;22.12;39.48;103445.13;5030335;27;45323;-75
2021/12/16 03:59:13;;;;;;;;;14.00;12.75;;;;;22.18;39.13;103448.13;5031678;28;45767;-74
2021/12/16 04:01:38;;;;;;;;;11.25;11.25;;;;;22.18;39.65;103460.53;5032126;28;46234;-74
2021/12/16 04:04:04;;;;;;;;;14.75;11.50;;;;;22.02;39.55;103434.34;5032305;28;45309;-74
2021/12/16 04:06:32;;;;;;;;;12.00;11.75;;;;;22.16;39.46;103458.00;5032590;27;45412;-74
2021/12/16 04:08:58;;;;;;;;;14.50;12.50;;;;;22.18;39.65;103465.84;5032448;28;45340;-74
2021/12/16 04:11:31;;;;;;;;;11.50;10.25;;;;;22.16;39.55;103460.66;5016137;27;47163;-74
2021/12/16 04:13:59;;;;;;;;;12.25;12.25;;;;;22.01;39.16;103433.53;5032229;28;45353;-74
2021/12/16 04:16:27;;;;;;;;;6.50;6.50;;;;;22.15;39.97;103461.63;5032343;28;45557;-74
2021/12/16 04:18:52;;;;;;;;;12.00;11.50;;;;;22.06;39.28;103441.97;5031108;28;45486;-74
2021/12/16 04:21:19;;;;;;;;;14.75;12.75;;;;;22.01;39.25;103432.66;5032210;28;46121;-74
2021/12/16 04:23:47;;;;;;;;;11.25;10.75;;;;;22.06;39.53;103454.38;5033267;28;45460;-75
2021/12/16 04:26:14;;;;;;;;;15.00;13.00;;;;;22.14;39.30;103465.25;5015921;27;45565;-74
2021/12/16 04:28:39;;;;;;;;;10.50;10.50;;;;;22.14;39.55;103467.03;5032173;28;45468;-75
2021/12/16 04:31:05;;;;;;;;;11.75;10.75;;;;;22.15;39.14;103466.91;5031809;28;46954;-74
2021/12/16 04:33:30;;;;;;;;;12.00;11.50;;;;;22.15;39.62;103466.91;5032100;28;45390;-74
2021/12/16 04:35:56;;;;;;;;;12.00;11.00;;;;;22.15;39.76;103468.72;5033043;28;45354;-74
2021/12/16 04:38:22;;;;;;;;;11.25;10.50;;;;;22.07;39.15;103458.69;5032349;28;45327;-74
2021/12/16 04:40:49;;;;;;;;;13.50;11.50;;;;;22.14;39.15;103459.09;5031483;28;47177;-75
2021/12/16 04:43:22;;;;;;;;;12.75;11.75;;;;;22.14;39.64;103467.91;5031967;28;45347;-74
2021/12/16 04:45:50;;;;;;;;;9.75;9.75;;;;;22.07;39.29;103456.03;5031975;28;45493;-74
2021/12/16 04:48:15;;;;;;;;;12.75;10.50;;;;;22.14;39.06;103465.25;5031945;27;45364;-75
2021/12/16 04:50:41;;;;;;;;;11.00;10.00;;;;;22.14;39.14;103470.53;5033795;28;46136;-74
2021/12/16 04:53:06;;;;;;;;;12.25;12.00;;;;;21.91;39.57;103424.56;5032351;28;45458;-74
2021/12/16 04:55:32;;;;;;;;;11.75;11.25;;;;;22.14;39.14;103464.41;5031435;28;45298;-74
2021/12/16 04:57:57;;;;;;;;;12.00;11.25;;;;;21.99;39.15;103440.72;5030721;28;45481;-74
2021/12/16 05:00:25;;;;;;;;;12.25;10.50;;;;;22.12;39.16;103461.84;5031619;28;45376;-74
2021/12/16 05:02:51;;;;;;;;;10.75;10.75;;;;;22.15;39.66;103464.25;5032429;27;45628;-75
2021/12/16 05:05:17;;;;;;;;;12.75;12.75;;;;;22.15;39.63;103472.22;5032766;28;45400;-74
2021/12/16 05:07:44;;;;;;;;;13.50;13.50;;;;;22.00;39.32;103444.22;5014651;28;45595;-75
2021/12/16 05:10:13;;;;;;;;;10.75;10.75;;;;;22.10;39.25;103468.22;5030995;28;47210;-75
2021/12/16 05:12:50;;;;;;;;;12.75;11.75;;;;;22.13;39.67;103470.66;5031589;28;45446;-75
2021/12/16 05:15:19;;;;;;;;;11.50;10.50;;;;;22.13;38.98;103471.50;5015277;28;45421;-75
2021/12/16 05:17:49;;;;;;;;;12.75;11.00;;;;;22.15;38.95;103474.88;5033048;27;45454;-75
2021/12/16 05:20:22;;;;;;;;;13.25;11.75;;;;;22.17;39.55;103480.91;5032621;28;45366;-75
2021/12/16 05:25:58;;;;;;;;;12.25;10.75;;;;;22.17;39.31;103474.78;5031359;28;45342;-74
2021/12/16 05:28:24;;;;;;;;;10.25;9.50;;;;;22.04;39.51;103456.31;5029869;28;45647;-75
2021/12/16 05:30:51;;;;;;;;;10.50;10.50;;;;;22.13;39.27;103476.81;5030188;28;46260;-75
2021/12/16 05:33:18;;;;;;;;;10.75;10.75;;;;;22.16;39.15;103481.03;5031421;27;45497;-75
2021/12/16 05:35:44;;;;;;;;;10.50;10.25;;;;;22.06;39.42;103475.59;5033117;28;45431;-75
2021/12/16 05:38:10;;;;;;;;;13.00;10.00;;;;;22.15;39.54;103485.47;5030259;28;45508;-75
2021/12/16 05:40:36;;;;;;;;;15.50;13.50;;;;;22.16;39.13;103486.31;5031093;28;46183;-75
2021/12/16 05:43:05;;;;;;;;;13.25;11.25;;;;;22.16;39.05;103492.47;5030943;28;45361;-75
2021/12/16 05:45:32;;;;;;;;;10.50;10.50;;;;;22.16;39.51;103495.13;5012985;27;45290;-74
2021/12/16 05:48:01;;;;;;;;;12.25;12.00;;;;;21.98;39.54;103459.41;5031108;28;45410;-75
2021/12/16 05:50:29;;;;;;;;;11.75;11.75;;;;;22.15;39.33;103485.47;5033070;27;45425;-75
2021/12/16 05:52:55;;;;;;;;;11.25;10.50;;;;;22.11;39.11;103477.88;5030545;27;45509;-75
2021/12/16 05:55:23;;;;;;;;;9.75;9.75;;;;;22.12;38.94;103484.88;5029574;28;45580;-75
2021/12/16 05:57:49;;;;;;;;;11.00;11.00;;;;;22.14;39.50;103498.88;5014650;28;45555;-75
2021/12/16 06:00:23;;;;;;;;;10.25;10.25;;;;;22.13;39.57;103489.22;5030956;28;45943;-75
2021/12/16 06:02:50;;;;;;;;;11.00;10.00;;;;;22.16;39.09;103499.59;5031732;28;45276;-75
2021/12/16 06:05:17;;;;;;;;;15.75;12.00;;;;;22.12;38.93;103490.19;5032209;28;45351;-76
2021/12/16 06:07:42;;;;;;;;;13.25;12.50;;;;;22.05;39.37;103493.28;5030189;28;45347;-74
2021/12/16 06:10:23;;;;;;;;;11.00;10.25;;;;;22.16;39.37;103500.44;5030572;28;45748;-75
2021/12/16 06:12:48;;;;;;;;;13.50;13.50;;;;;22.16;39.06;103497.78;5030201;28;45339;-75
2021/12/16 06:15:22;;;;;;;;;13.00;12.50;;;;;22.16;38.99;103500.44;5029806;28;45583;-75
2021/12/16 06:28:27;;;;;;;;;16.75;12.75;;;;;22.12;38.96;103495.50;5030599;28;45374;-75
2021/12/16 06:30:52;;;;;;;;;14.25;12.00;;;;;22.17;39.47;103504.75;5099045;27;48073;-79
2021/12/16 06:33:23;;;;;;;;;13.75;11.00;;;;;22.14;39.55;103494.41;5029134;28;45335;-76
2021/12/16 06:35:52;;;;;;;;;12.25;11.25;;;;;22.14;39.07;103505.03;5031336;28;45390;-76
2021/12/16 06:38:17;;;;;;;;;11.75;11.75;;;;;22.20;39.41;103514.28;5031876;28;45607;-83
2021/12/16 06:40:42;;;;;;;;;12.75;12.75;;;;;22.11;39.15;103499.09;5030269;28;46131;-80
2021/12/16 06:43:10;;;;;;;;;13.00;12.75;;;;;22.17;39.38;103510.06;5030281;28;45479;-75
2021/12/16 06:45:39;;;;;;;;;16.00;12.00;;;;;22.08;39.71;103489.56;5030509;27;45530;-75
2021/12/16 06:48:11;;;;;;;;;17.50;14.25;;;;;22.13;39.56;103497.16;5030307;28;45435;-74
2021/12/16 06:50:51;;;;;;;;;14.75;14.75;;;;;22.26;39.46;103520.94;5031739;28;47347;-73
2021/12/16 06:53:29;;;;;;;;;15.75;11.50;;;;;22.26;39.67;103515.63;5031529;28;45410;-74
2021/12/16 06:56:08;;;;;;;;;14.75;11.25;;;;;22.27;39.69;103522.66;5029032;28;45501;-76
2021/12/16 06:58:39;;;;;;;;;15.25;13.50;;;;;22.27;39.44;103520.84;5030054;27;45374;-74
2021/12/16 07:01:26;;;;;;;;;15.50;12.00;;;;;22.17;39.67;103507.41;5028747;28;46947;-75
2021/12/16 07:03:51;;;;;;;;;14.50;12.50;;;;;22.27;39.31;103522.66;5029557;28;45619;-76
2021/12/16 07:06:27;;;;;;;;;11.25;10.50;;;;;22.20;39.21;103508.16;5029737;28;45790;-76
2021/12/16 07:08:58;;;;;;;;;13.00;12.75;;;;;22.27;39.84;103527.94;5029765;28;45599;-72
2021/12/16 07:11:24;;;;;;;;;17.00;13.00;;;;;22.26;39.53;103528.91;5025590;28;46251;-76
2021/12/16 07:13:58;;;;;;;;;13.75;13.75;;;;;22.26;39.46;103531.56;5027843;28;45513;-76
2021/12/16 07:16:26;;;;;;;;;14.50;11.50;;;;;22.28;39.55;103532.28;5026476;28;45337;-76
2021/12/16 07:18:53;;;;;;;;;15.00;12.25;;;;;22.27;40.05;103523.50;5028600;28;45742;-76
2021/12/16 07:21:18;;;;;;;;;11.00;10.25;;;;;22.25;39.73;103533.34;5027967;27;48424;-75
2021/12/16 07:23:44;;;;;;;;;17.00;13.75;;;;;22.21;40.07;103525.75;5046882;27;45339;-75
2021/12/16 07:26:09;;;;;;;;;19.25;14.00;;;;;22.29;40.28;103544.59;5030135;28;45543;-73
2021/12/16 07:28:35;;;;;;;;;13.25;12.00;;;;;22.28;40.27;103535.78;5029329;27;45596;-74
2021/12/16 07:31:00;;;;;;;;;16.00;11.00;;;;;22.23;40.04;103522.03;5032685;27;46280;-74
2021/12/16 07:33:26;;;;;;;;;13.75;10.25;;;;;22.23;40.38;103529.97;5031228;28;45549;-73
2021/12/16 07:35:52;;;;;;;;;13.00;11.50;;;;;22.29;40.08;103540.13;5033551;27;45406;-75
2021/12/16 07:38:18;;;;;;;;;12.00;12.00;;;;;22.29;40.40;103540.13;5034289;28;45396;-71
2021/12/16 07:40:46;;;;;;;;;14.00;11.50;;;;;22.31;40.05;103550.63;5032409;27;47348;-72
2021/12/16 07:43:24;;;;;;;;;19.25;13.25;;;;;22.32;40.65;103547.00;5032419;27;45555;-75
2021/12/16 07:45:54;;;;;;;;;12.00;11.50;;;;;22.20;40.52;103529.38;5032617;28;45263;-75
2021/12/16 07:48:22;;;;;;;;;12.25;11.25;;;;;22.32;40.22;103547.00;5032217;27;45498;-76
2021/12/16 07:50:55;;;;;;;;;15.50;11.75;;;;;22.31;40.57;103555.91;5033463;28;45595;-75
2021/12/16 07:53:21;;;;;;;;;12.50;10.75;;;;;22.27;40.39;103555.31;5034382;27;46215;-75
2021/12/16 07:55:47;;;;;;;;;14.00;13.25;;;;;22.32;40.08;103560.28;5032341;28;45425;-76
2021/12/16 07:58:13;;;;;;;;;13.75;12.00;;;;;22.25;40.58;103556.41;5032388;28;45445;-75
2021/12/16 08:00:39;;;;;;;;;11.25;10.00;;;;;22.31;40.08;103569.19;5032344;28;45365;-75
2021/12/16 08:03:07;;;;;;;;;13.00;13.00;;;;;22.31;40.05;103571.84;5031919;27;45282;-76
2021/12/16 08:05:38;;;;;;;;;15.50;12.75;;;;;22.32;40.58;103567.38;5033603;27;45228;-75
2021/12/16 08:08:04;;;;;;;;;12.50;10.75;;;;;22.32;40.48;103564.72;5032079;28;45943;-76
2021/12/16 08:10:30;;;;;;;;;15.25;14.00;;;;;22.27;40.48;103565.94;5031957;28;45285;-75
2021/12/16 08:12:55;;;;;;;;;13.00;10.50;;;;;22.33;40.18;103582.34;5030516;27;45298;-75
2021/12/16 08:15:22;;;;;;;;;14.50;12.75;;;;;22.33;40.20;103582.34;5032384;27;45425;-76
2021/12/16 08:17:48;;;;;;;;;11.75;11.00;;;;;22.33;40.38;103574.38;5033277;27;45460;-75
2021/12/16 08:20:18;;;;;;;;;14.75;13.25;;;;;22.31;40.54;103579.78;5033732;27;46965;-76
2021/12/16 08:22:49;;;;;;;;;13.50;12.50;;;;;22.33;40.03;103590.31;5031606;28;45439;-76
2021/12/16 08:25:18;;;;;;;;;12.75;12.75;;;;;22.31;40.08;103590.41;5032113;28;45504;-75
2021/12/16 08:27:45;;;;;;;;;12.75;10.00;;;;;22.31;40.50;103595.69;5032084;27;45523;-76
2021/12/16 08:30:14;;;;;;;;;12.25;10.00;;;;;22.25;40.14;103580.25;5015238;27;46493;-76
2021/12/16 08:32:40;;;;;;;;;14.75;12.25;;;;;22.18;40.38;103562.16;5045244;28;45485;-75
2021/12/16 08:35:07;;;;;;;;;18.00;14.00;;;;;22.31;40.08;103589.53;5032064;28;45347;-76
2021/12/16 08:37:33;;;;;;;;;13.75;13.25;;;;;22.31;40.49;103597.50;5032011;28;45549;-76
2021/12/16 08:40:01;;;;;;;;;11.50;10.25;;;;;22.29;40.21;103594.97;5031565;28;46686;-75
2021/12/16 08:42:26;;;;;;;;;14.50;14.50;;;;;22.30;40.42;103596.69;5031055;28;45441;-76
2021/12/16 08:44:52;;;;;;;;;14.00;13.75;;;;;22.18;40.19;103577.22;5032623;28;45355;-76
2021/12/16 08:47:19;;;;;;;;;13.75;12.75;;;;;22.19;40.15;103576.25;5032909;28;45249;-75
2021/12/16 08:49:46;;;;;;;;;14.00;11.00;;;;;22.28;40.04;103601.22;5031561;28;47562;-74
2021/12/16 08:52:19;;;;;;;;;12.25;11.25;;;;;22.29;39.96;103598.47;5030260;28;45333;-76
2021/12/16 08:54:46;;;;;;;;;12.25;12.00;;;;;22.29;39.99;103606.44;5031896;27;45419;-76
2021/12/16 08:57:12;;;;;;;;;13.00;13.00;;;;;22.28;40.48;103612.69;5031865;27;45506;-76
2021/12/16 08:59:38;;;;;;;;;11.25;11.25;;;;;22.29;39.89;103610.88;5029337;28;46265;-75
2021/12/16 09:02:07;;;;;;;;;10.75;10.75;;;;;22.28;39.96;103615.34;5031340;28;45380;-76
2021/12/16 09:04:33;;;;;;;;;10.75;10.50;;;;;22.21;40.16;103600.00;5031546;28;45320;-76
2021/12/16 09:07:03;;;;;;;;;12.00;10.00;;;;;22.28;39.86;103611.84;5031477;27;45457;-76
2021/12/16 09:09:33;;;;;;;;;8.00;7.75;;;;;22.28;40.44;103606.53;5030106;28;46664;-76
2021/12/16 09:12:13;;;;;;;;;16.00;13.75;;;;;21.93;40.08;103556.03;5031443;28;45351;-75
2021/12/16 09:14:41;;;;;;;;;11.00;10.25;;;;;22.25;40.29;103610.25;5029122;28;45293;-76
2021/12/16 09:17:10;;;;;;;;;11.75;11.00;;;;;22.14;40.16;103589.88;5030374;28;45422;-75
2021/12/16 09:19:42;;;;;;;;;11.25;10.00;;;;;22.27;39.98;103618.13;5031215;28;47307;-75
2021/12/16 09:22:10;;;;;;;;;14.00;12.50;;;;;22.26;40.02;103616.41;5031083;27;45426;-75
2021/12/16 09:24:35;;;;;;;;;11.50;10.25;;;;;22.26;40.46;103619.06;5031551;28;45577;-76
2021/12/16 09:27:01;;;;;;;;;17.00;12.75;;;;;22.25;40.18;103625.34;5031227;28;45295;-76
2021/12/16 09:29:26;;;;;;;;;12.00;11.00;;;;;22.25;40.27;103628.81;5033088;28;45364;-75
2021/12/16 09:31:52;;;;;;;;;11.75;11.75;;;;;22.20;40.21;103630.16;5029990;28;45494;-75
2021/12/16 09:34:17;;;;;;;;;12.00;9.75;;;;;22.25;39.86;103641.25;5031379;28;45591;-76
2021/12/16 09:36:45;;;;;;;;;14.00;13.00;;;;;22.23;40.08;103635.19;5031520;28;45444;-76
2021/12/16 09:39:16;;;;;;;;;14.00;12.00;;;;;22.23;40.38;103638.72;5014259;28;45287;-76
2021/12/16 09:41:46;;;;;;;;;11.25;11.00;;;;;22.24;39.89;103651.03;5029468;28;45413;-75
2021/12/16 09:44:12;;;;;;;;;7.25;6.50;;;;;22.24;40.11;103653.66;5031540;28;45800;-75
2021/12/16 09:46:38;;;;;;;;;15.75;14.50;;;;;22.24;39.86;103653.66;5031066;28;45463;-75
2021/12/16 09:49:04;;;;;;;;;10.75;8.00;;;;;22.22;40.27;103652.94;5025238;28;46177;-75
2021/12/16 09:51:32;;;;;;;;;15.00;13.00;;;;;22.24;40.19;103648.38;5031125;28;45536;-76
2021/12/16 09:54:04;;;;;;;;;16.50;12.00;;;;;22.23;40.49;103654.63;5029665;27;45338;-75
2021/12/16 09:56:30;;;;;;;;;13.25;12.00;;;;;22.22;40.34;103652.94;5033229;27;45355;-75
2021/12/16 09:58:57;;;;;;;;;12.25;12.00;;;;;22.25;40.22;103659.84;5030295;28;46918;-75
2021/12/16 10:01:24;;;;;;;;;12.00;12.00;;;;;22.26;39.84;103658.84;5030820;28;45410;-75
2021/12/16 10:03:53;;;;;;;;;13.50;10.00;;;;;22.24;40.17;103658.97;5030869;28;45474;-75
2021/12/16 10:06:19;;;;;;;;;11.75;11.25;;;;;22.25;39.94;103671.25;5030959;28;45416;-76
2021/12/16 10:08:46;;;;;;;;;14.00;12.00;;;;;22.26;40.31;103677.41;5032295;28;47031;-75
2021/12/16 10:11:12;;;;;;;;;13.50;12.00;;;;;22.24;40.26;103666.94;5030202;28;45345;-75
2021/12/16 10:13:45;;;;;;;;;12.00;10.75;;;;;22.24;39.82;103669.59;5030285;28;45370;-75
2021/12/16 10:18:37;;;;;;;;;14.00;13.75;;;;;22.24;40.33;103674.88;5029165;27;45473;-75
2021/12/16 10:21:05;;;;;;;;;12.25;11.00;;;;;22.25;39.86;103673.09;5030812;28;45460;-75
2021/12/16 10:23:40;;;;;;;;;15.75;14.00;;;;;22.25;40.09;103667.78;5032670;28;45259;-76
2021/12/16 10:26:15;;;;;;;;;11.00;9.75;;;;;22.22;39.89;103674.16;5029174;28;45649;-75
2021/12/16 10:28:44;;;;;;;;;15.50;12.75;;;;;22.24;39.85;103671.38;5028523;28;45363;-75
2021/12/16 10:31:13;;;;;;;;;9.00;7.00;;;;;22.24;40.31;103676.69;5030310;28;45361;-75
2021/12/16 10:33:47;;;;;;;;;10.75;10.75;;;;;22.23;40.28;103674.97;5030599;28;45388;-76
2021/12/16 10:36:26;;;;;;;;;11.00;10.00;;;;;22.22;39.79;103668.84;5014952;28;45601;-76
2021/12/16 10:39:05;;;;;;;;;14.25;10.00;;;;;22.23;39.65;103670.53;5028902;28;46340;-76
2021/12/16 10:41:33;;;;;;;;;12.50;12.25;;;;;22.23;39.88;103664.38;5032368;28;45370;-72
2021/12/16 10:44:15;;;;;;;;;13.75;11.75;;;;;22.22;39.75;103657.41;5030171;28;45658;-76
2021/12/16 10:46:47;;;;;;;;;12.50;12.00;;;;;22.14;39.85;103639.41;5030217;28;45284;-76
2021/12/16 10:49:14;;;;;;;;;14.00;13.75;;;;;22.22;40.04;103654.75;5029087;28;46579;-75
2021/12/16 10:51:49;;;;;;;;;11.75;11.50;;;;;22.23;40.24;103661.72;5030185;27;45490;-76
2021/12/16 10:54:23;;;;;;;;;7.00;6.75;;;;;22.21;40.21;103658.34;5015341;28;45477;-76
2021/12/16 10:57:04;;;;;;;;;14.75;11.50;;;;;22.21;40.01;103659.19;5031540;27;45449;-76
2021/12/16 11:00:18;;;;;;;;;13.25;13.25;;;;;22.22;40.20;103660.91;5032166;28;46146;-75
2021/12/16 11:02:44;;;;;;;;;17.00;13.75;;;;;22.14;39.56;103647.34;5032198;28;45395;-75
2021/12/16 11:05:20;;;;;;;;;11.00;11.00;;;;;22.21;39.75;103664.50;5032366;28;45437;-76
2021/12/16 11:07:55;;;;;;;;;12.50;12.00;;;;;22.21;39.78;103650.38;5031593;27;45270;-76
2021/12/16 11:10:27;;;;;;;;;13.25;11.25;;;;;22.20;39.71;103657.50;5032912;28;46329;-76
2021/12/16 11:13:04;;;;;;;;;11.00;11.00;;;;;22.18;40.14;103652.31;5032592;28;45338;-76
2021/12/16 11:15:44;;;;;;;;;10.25;10.00;;;;;22.21;40.05;103666.28;5033229;28;45455;-75
2021/12/16 11:18:17;;;;;;;;;18.25;13.50;;;;;22.20;40.10;103657.50;5032985;28;45276;-76
2021/12/16 11:20:58;;;;;;;;;13.00;12.25;;;;;22.16;39.59;103651.59;5031164;28;46092;-75
2021/12/16 11:23:30;;;;;;;;;16.25;12.00;;;;;22.21;39.70;103659.19;5034641;28;45479;-75
2021/12/16 11:26:10;;;;;;;;;13.25;11.75;;;;;22.22;39.71;103660.03;5011798;28;45406;-75
2021/12/16 11:28:39;;;;;;;;;12.75;12.25;;;;;22.22;39.72;103660.03;5027393;28;45395;-75
2021/12/16 11:31:12;;;;;;;;;14.00;13.25;;;;;22.21;39.55;103658.34;5032534;27;46299;-76
2021/12/16 11:33:51;;;;;;;;;12.75;11.25;;;;;22.22;39.80;103665.34;5032716;27;45435;-76
2021/12/16 11:36:23;;;;;;;;;11.00;10.25;;;;;22.21;39.81;103661.84;5017764;28;45497;-76
2021/12/16 11:39:11;;;;;;;;;13.00;11.50;;;;;22.22;39.62;103668.00;5034240;27;45316;-76
2021/12/16 11:41:48;;;;;;;;;14.50;12.00;;;;;22.18;40.01;103662.06;5033466;28;46142;-76
2021/12/16 11:44:19;;;;;;;;;11.50;10.50;;;;;22.21;39.70;103669.81;5031306;28;45378;-75
2021/12/16 11:46:47;;;;;;;;;13.25;12.00;;;;;22.22;39.95;103674.16;5030983;28;45470;-76
2021/12/16 11:49:23;;;;;;;;;12.50;12.25;;;;;22.22;40.08;103668.00;5032644;28;46770;-75
2021/12/16 11:52:04;;;;;;;;;15.50;12.25;;;;;22.22;40.04;103668.84;5032071;28;46425;-76
2021/12/16 11:54:44;;;;;;;;;15.50;12.75;;;;;22.21;39.87;103666.28;5032212;28;45454;-76
2021/12/16 11:57:13;;;;;;;;;9.75;9.00;;;;;22.20;40.04;103662.78;5015077;28;45399;-75
2021/12/16 11:59:42;;;;;;;;;11.50;10.25;;;;;22.13;39.65;103657.09;5030460;28;45287;-76
2021/12/16 12:02:22;;;;;;;;;15.25;13.00;;;;;22.21;39.57;103667.16;5031145;27;46161;-76
2021/12/16 12:04:49;;;;;;;;;11.00;10.00;;;;;22.21;40.07;103661.00;5032166;27;45487;-75
2021/12/16 12:07:17;;;;;;;;;12.75;12.00;;;;;22.18;39.52;103668.22;5031032;28;45314;-75
2021/12/16 12:09:49;;;;;;;;;15.75;12.50;;;;;22.20;40.00;103669.94;5032066;28;45564;-75
2021/12/16 12:12:16;;;;;;;;;13.75;12.00;;;;;22.21;39.58;103667.16;5016980;28;45405;-75
2021/12/16 12:14:43;;;;;;;;;10.50;10.25;;;;;22.20;39.97;103668.09;5034574;28;45377;-76
2021/12/16 12:17:16;;;;;;;;;11.25;11.25;;;;;22.20;40.02;103665.44;5031840;27;45429;-75
2021/12/16 12:19:48;;;;;;;;;11.00;11.00;;;;;22.20;39.98;103661.97;5032102;28;45509;-75
2021/12/16 12:22:15;;;;;;;;;12.00;10.25;;;;;22.18;39.96;103668.22;5031761;28;46037;-77
2021/12/16 12:24:46;;;;;;;;;13.25;12.00;;;;;22.20;39.86;103667.28;5030500;27;45516;-76
2021/12/16 12:27:25;;;;;;;;;12.00;10.50;;;;;22.17;39.99;103661.22;5015380;28;45450;-75
2021/12/16 12:29:58;;;;;;;;;13.25;10.75;;;;;22.20;39.42;103659.31;5030631;28;45422;-76
2021/12/16 12:32:24;;;;;;;;;12.75;9.75;;;;;22.18;39.39;103665.56;5031992;28;46353;-76
2021/12/16 12:34:55;;;;;;;;;9.00;9.00;;;;;22.20;39.94;103661.97;5032046;28;45600;-76
2021/12/16 12:37:23;;;;;;;;;10.75;10.75;;;;;22.18;39.50;103662.91;5032007;28;45493;-75
2021/12/16 12:40:13;;;;;;;;;11.50;11.50;;;;;22.18;39.88;103657.63;5031431;28;45348;-76
2021/12/16 12:42:41;;;;;;;;;11.50;10.75;;;;;22.18;40.02;103660.25;5031706;28;46163;-75
2021/12/16 12:45:09;;;;;;;;;13.25;13.00;;;;;22.20;39.69;103664.63;5031823;28;45453;-75
2021/12/16 12:47:37;;;;;;;;;13.00;13.00;;;;;22.17;39.46;103645.31;5033149;28;45358;-76
2021/12/16 12:50:23;;;;;;;;;10.00;8.75;;;;;22.19;39.40;103658.47;5031899;27;45441;-76
2021/12/16 12:52:51;;;;;;;;;8.75;8.75;;;;;22.20;39.27;103648.72;5031139;28;47306;-73
2021/12/16 12:55:26;;;;;;;;;11.75;10.00;;;;;22.18;39.80;103647.00;5031690;28;45425;-75
2021/12/16 12:58:20;;;;;;;;;11.00;9.75;;;;;22.20;39.71;103646.88;5030609;28;45429;-75
2021/12/16 13:00:48;;;;;;;;;11.50;9.25;;;;;22.20;39.50;103646.88;5030914;27;45331;-74
2021/12/16 13:03:38;;;;;;;;;11.75;10.00;;;;;22.12;39.48;103628.88;5030265;28;46541;-75
2021/12/16 13:06:06;;;;;;;;;12.00;11.75;;;;;22.20;39.81;103641.59;5006686;28;45382;-75
2021/12/16 13:08:35;;;;;;;;;9.25;8.50;;;;;22.20;39.45;103643.41;5033356;28;45538;-75
2021/12/16 13:11:11;;;;;;;;;9.25;9.25;;;;;22.20;39.84;103643.41;5031565;27;45478;-76
2021/12/16 13:13:45;;;;;;;;;12.00;10.25;;;;;22.20;39.74;103644.22;5031269;28;47021;-75
2021/12/16 13:27:06;;;;;;;;;8.50;8.00;;;;;22.20;39.79;103635.44;5031399;28;45737;-75
2021/12/16 13:29:38;;;;;;;;;10.50;10.00;;;;;22.14;39.63;103615.53;5036852;27;45394;-76
2021/12/16 13:32:15;;;;;;;;;12.00;11.00;;;;;22.20;39.34;103620.38;5031242;28;45696;-76
2021/12/16 13:35:08;;;;;;;;;8.75;8.75;;;;;22.18;39.27;103617.84;5031113;28;46898;-76
2021/12/16 13:37:44;;;;;;;;;10.25;8.75;;;;;22.20;39.79;103619.53;5030734;28;45542;-75
2021/12/16 13:40:22;;;;;;;;;9.00;9.00;;;;;22.19;39.36;103613.38;5031128;28;45312;-76
2021/12/16 13:42:57;;;;;;;;;11.00;9.25;;;;;22.18;39.63;103609.03;5029961;27;45447;-75
2021/12/16 13:45:40;;;;;;;;;10.50;10.50;;;;;22.18;39.26;103606.38;5031037;28;46380;-75
2021/12/16 13:48:58;;;;;;;;;9.75;9.75;;;;;22.17;39.28;103600.22;5023612;28;45338;-75
2021/12/16 14:03:47;;;;;;;;;8.25;7.00;;;;;22.16;39.67;103610.97;5014632;28;45419;-76
2021/12/16 14:06:24;;;;;;;;;8.00;8.00;;;;;22.15;39.17;103604.81;5015194;28;45342;-76
2021/12/16 14:08:54;;;;;;;;;8.50;8.50;;;;;22.16;39.24;103611.81;5032045;27;47020;-76